sensor_id;sensor_type;location;lat;lon;timestamp;pressure;altitude;pressure_sealevel;temperature;humidity
75936;BME280;64614;32.062;34.834;2024-03-02T00:00:23;100583.84;;;25.47;31.07
75936;BME280;64614;32.062;34.834;2024-03-02T00:02:50;100581.22;;;25.50;31.03
75936;BME280;64614;32.062;34.834;2024-03-02T00:05:21;100562.50;;;25.44;31.01
75936;BME280;64614;32.062;34.834;2024-03-02T00:07:59;100570.22;;;25.50;31.12
75936;BME280;64614;32.062;34.834;2024-03-02T00:10:26;100575.38;;;25.52;31.23
75936;BME280;64614;32.062;34.834;2024-03-02T00:12:57;100562.66;;;25.39;31.26
75936;BME280;64614;32.062;34.834;2024-03-02T00:18:12;100569.44;;;25.50;31.21
75936;BME280;64614;32.062;34.834;2024-03-02T00:20:39;100571.03;;;25.51;31.41
75936;BME280;64614;32.062;34.834;2024-03-02T00:23:08;100563.94;;;25.50;31.19
75936;BME280;64614;32.062;34.834;2024-03-02T00:25:40;100571.03;;;25.51;31.41
75936;BME280;64614;32.062;34.834;2024-03-02T00:28:38;100563.38;;;25.57;31.28
75936;BME280;64614;32.062;34.834;2024-03-02T00:31:05;100564.81;;;25.63;31.27
75936;BME280;64614;32.062;34.834;2024-03-02T00:33:36;100559.03;;;25.56;31.47
75936;BME280;64614;32.062;34.834;2024-03-02T00:36:03;100550.97;;;25.50;31.30
75936;BME280;64614;32.062;34.834;2024-03-02T00:38:34;100566.81;;;25.54;31.60
75936;BME280;64614;32.062;34.834;2024-03-02T00:41:06;100556.59;;;25.54;31.48
75936;BME280;64614;32.062;34.834;2024-03-02T00:43:42;100560.19;;;25.55;31.53
75936;BME280;64614;32.062;34.834;2024-03-02T00:46:11;100560.50;;;25.53;31.34
75936;BME280;64614;32.062;34.834;2024-03-02T00:48:36;100557.59;;;25.49;31.61
75936;BME280;64614;32.062;34.834;2024-03-02T00:51:05;100564.84;;;25.54;31.41
75936;BME280;64614;32.062;34.834;2024-03-02T00:53:31;100575.53;;;25.56;31.53
75936;BME280;64614;32.062;34.834;2024-03-02T00:55:58;100554.06;;;25.49;31.75
75936;BME280;64614;32.062;34.834;2024-03-02T00:58:25;100559.22;;;25.50;31.58
75936;BME280;64614;32.062;34.834;2024-03-02T01:00:50;100557.75;;;25.53;31.69
75936;BME280;64614;32.062;34.834;2024-03-02T01:03:16;100540.84;;;25.42;31.88
75936;BME280;64614;32.062;34.834;2024-03-02T01:05:42;100561.97;;;25.50;31.91
75936;BME280;64614;32.062;34.834;2024-03-02T01:08:09;100559.03;;;25.56;31.80
75936;BME280;64614;32.062;34.834;2024-03-02T01:10:35;100557.88;;;25.57;31.97
75936;BME280;64614;32.062;34.834;2024-03-02T01:13:01;100562.59;;;25.56;31.95
75936;BME280;64614;32.062;34.834;2024-03-02T01:15:26;100561.63;;;25.52;32.11
75936;BME280;64614;32.062;34.834;2024-03-02T01:17:52;100559.69;;;25.53;31.81
75936;BME280;64614;32.062;34.834;2024-03-02T01:20:18;100560.50;;;25.53;32.15
75936;BME280;64614;32.062;34.834;2024-03-02T01:22:45;100538.09;;;25.42;31.79
75936;BME280;64614;32.062;34.834;2024-03-02T01:25:10;100561.31;;;25.54;32.00
75936;BME280;64614;32.062;34.834;2024-03-02T01:27:36;100546.94;;;25.48;32.13
75936;BME280;64614;32.062;34.834;2024-03-02T01:30:02;100555.69;;;25.50;31.56
75936;BME280;64614;32.062;34.834;2024-03-02T01:32:28;100548.09;;;25.47;31.99
75936;BME280;64614;32.062;34.834;2024-03-02T01:34:54;100546.47;;;25.46;32.00
75936;BME280;64614;32.062;34.834;2024-03-02T01:37:19;100544.69;;;25.50;32.22
75936;BME280;64614;32.062;34.834;2024-03-02T01:39:45;100540.81;;;25.51;32.41
75936;BME280;64614;32.062;34.834;2024-03-02T01:42:11;100533.69;;;25.50;32.22
75936;BME280;64614;32.062;34.834;2024-03-02T01:44:36;100535.31;;;25.51;32.32
75936;BME280;64614;32.062;34.834;2024-03-02T01:47:02;100535.31;;;25.51;32.21
75936;BME280;64614;32.062;34.834;2024-03-02T01:49:28;100531.59;;;25.47;31.95
75936;BME280;64614;32.062;34.834;2024-03-02T01:51:54;100535.81;;;25.44;32.02
75936;BME280;64614;32.062;34.834;2024-03-02T01:54:19;100531.31;;;25.40;32.29
75936;BME280;64614;32.062;34.834;2024-03-02T01:56:45;100535.00;;;25.44;32.42
75936;BME280;64614;32.062;34.834;2024-03-02T01:59:11;100549.69;;;25.48;32.58
75936;BME280;64614;32.062;34.834;2024-03-02T02:01:38;100542.13;;;25.45;32.40
75936;BME280;64614;32.062;34.834;2024-03-02T02:04:04;100553.09;;;25.45;32.36
75936;BME280;64614;32.062;34.834;2024-03-02T02:06:32;100557.00;;;25.44;32.70
75936;BME280;64614;32.062;34.834;2024-03-02T02:08:58;100560.91;;;25.43;32.43
75936;BME280;64614;32.062;34.834;2024-03-02T02:11:24;100552.97;;;25.41;32.71
75936;BME280;64614;32.062;34.834;2024-03-02T02:13:50;100558.16;;;25.43;32.50
75936;BME280;64614;32.062;34.834;2024-03-02T02:16:16;100565.09;;;25.40;32.55
75936;BME280;64614;32.062;34.834;2024-03-02T02:18:41;100556.38;;;25.38;32.81
75936;BME280;64614;32.062;34.834;2024-03-02T02:21:07;100559.28;;;25.42;32.63
75936;BME280;64614;32.062;34.834;2024-03-02T02:23:33;100553.31;;;25.40;32.70
75936;BME280;64614;32.062;34.834;2024-03-02T02:25:59;100559.75;;;25.44;32.24
75936;BME280;64614;32.062;34.834;2024-03-02T02:28:24;100558.59;;;25.45;32.38
75936;BME280;64614;32.062;34.834;2024-03-02T02:30:50;100556.06;;;25.40;32.70
75936;BME280;64614;32.062;34.834;2024-03-02T02:33:15;100553.03;;;25.32;32.90
75936;BME280;64614;32.062;34.834;2024-03-02T02:35:41;100551.19;;;25.37;32.45
75936;BME280;64614;32.062;34.834;2024-03-02T02:38:07;100564.78;;;25.42;32.63
75936;BME280;64614;32.062;34.834;2024-03-02T02:40:32;100553.94;;;25.37;32.41
75936;BME280;64614;32.062;34.834;2024-03-02T02:42:58;100569.81;;;25.40;32.81
75936;BME280;64614;32.062;34.834;2024-03-02T02:45:27;100568.81;;;25.44;32.87
75936;BME280;64614;32.062;34.834;2024-03-02T02:47:52;100562.53;;;25.35;32.78
75936;BME280;64614;32.062;34.834;2024-03-02T02:50:18;100548.81;;;25.26;32.61
75936;BME280;64614;32.062;34.834;2024-03-02T02:52:44;100558.03;;;25.30;32.67
75936;BME280;64614;32.062;34.834;2024-03-02T02:55:11;100567.19;;;25.43;32.58
75936;BME280;64614;32.062;34.834;2024-03-02T02:57:39;100551.75;;;25.30;32.49
75936;BME280;64614;32.062;34.834;2024-03-02T03:00:15;100561.56;;;25.40;32.65
75936;BME280;64614;32.062;34.834;2024-03-02T03:02:42;100568.81;;;25.44;32.54
75936;BME280;64614;32.062;34.834;2024-03-02T03:05:09;100575.09;;;25.45;33.04
75936;BME280;64614;32.062;34.834;2024-03-02T03:07:35;100571.91;;;25.43;32.88
75936;BME280;64614;32.062;34.834;2024-03-02T03:10:03;100578.19;;;25.43;32.85
75936;BME280;64614;32.062;34.834;2024-03-02T03:12:33;100571.91;;;25.43;32.90
75936;BME280;64614;32.062;34.834;2024-03-02T03:14:59;100560.44;;;25.41;32.91
75936;BME280;64614;32.062;34.834;2024-03-02T03:17:25;100571.91;;;25.43;32.94
75936;BME280;64614;32.062;34.834;2024-03-02T03:19:52;100559.94;;;25.39;32.87
75936;BME280;64614;32.062;34.834;2024-03-02T03:22:18;100552.81;;;25.38;32.94
75936;BME280;64614;32.062;34.834;2024-03-02T03:24:43;100564.63;;;25.38;32.97
75936;BME280;64614;32.062;34.834;2024-03-02T03:27:09;100555.56;;;25.38;33.03
75936;BME280;64614;32.062;34.834;2024-03-02T03:29:36;100560.44;;;25.41;32.88
75936;BME280;64614;32.062;34.834;2024-03-02T03:32:02;100545.69;;;25.37;33.27
75936;BME280;64614;32.062;34.834;2024-03-02T03:34:28;100563.19;;;25.41;32.93
75936;BME280;64614;32.062;34.834;2024-03-02T03:36:54;100547.03;;;25.30;32.86
75936;BME280;64614;32.062;34.834;2024-03-02T03:39:20;100551.75;;;25.30;32.98
75936;BME280;64614;32.062;34.834;2024-03-02T03:41:46;100541.75;;;25.25;33.17
75936;BME280;64614;32.062;34.834;2024-03-02T03:44:12;100546.09;;;25.26;32.96
75936;BME280;64614;32.062;34.834;2024-03-02T03:46:37;100547.56;;;25.24;32.67
75936;BME280;64614;32.062;34.834;2024-03-02T03:49:03;100533.75;;;25.11;33.11
75936;BME280;64614;32.062;34.834;2024-03-02T03:51:29;100558.56;;;25.24;32.86
75936;BME280;64614;32.062;34.834;2024-03-02T03:53:56;100562.13;;;25.24;32.65
75936;BME280;64614;32.062;34.834;2024-03-02T03:56:21;100564.19;;;25.27;32.63
75936;BME280;64614;32.062;34.834;2024-03-02T03:58:47;100552.91;;;25.20;32.98
75936;BME280;64614;32.062;34.834;2024-03-02T04:01:12;100537.63;;;25.10;33.00
75936;BME280;64614;32.062;34.834;2024-03-02T04:03:39;100571.00;;;25.30;32.77
75936;BME280;64614;32.062;34.834;2024-03-02T04:06:05;100568.56;;;25.28;33.17
75936;BME280;64614;32.062;34.834;2024-03-02T04:08:30;100554.06;;;25.19;32.87
75936;BME280;64614;32.062;34.834;2024-03-02T04:10:56;100559.38;;;25.24;33.02
75936;BME280;64614;32.062;34.834;2024-03-02T04:13:22;100573.13;;;25.24;33.25
75936;BME280;64614;32.062;34.834;2024-03-02T04:15:48;100562.28;;;25.19;32.95
75936;BME280;64614;32.062;34.834;2024-03-02T04:18:13;100569.69;;;25.27;33.10
75936;BME280;64614;32.062;34.834;2024-03-02T04:20:39;100540.25;;;25.07;33.16
75936;BME280;64614;32.062;34.834;2024-03-02T04:23:05;100552.63;;;25.13;33.01
75936;BME280;64614;32.062;34.834;2024-03-02T04:25:30;100565.88;;;25.19;33.33
75936;BME280;64614;32.062;34.834;2024-03-02T04:27:56;100562.97;;;25.16;33.21
75936;BME280;64614;32.062;34.834;2024-03-02T04:30:22;100565.72;;;25.16;32.98
75936;BME280;64614;32.062;34.834;2024-03-02T04:32:47;100574.56;;;25.22;33.24
75936;BME280;64614;32.062;34.834;2024-03-02T04:35:17;100561.38;;;25.15;33.34
75936;BME280;64614;32.062;34.834;2024-03-02T04:37:43;100562.97;;;25.16;33.28
75936;BME280;64614;32.062;34.834;2024-03-02T04:40:09;100579.59;;;25.19;33.32
75936;BME280;64614;32.062;34.834;2024-03-02T04:42:35;100572.50;;;25.18;33.28
75936;BME280;64614;32.062;34.834;2024-03-02T04:45:01;100567.00;;;25.18;33.10
75936;BME280;64614;32.062;34.834;2024-03-02T04:47:27;100565.25;;;25.14;33.62
75936;BME280;64614;32.062;34.834;2024-03-02T04:49:53;100568.66;;;25.11;33.39
75936;BME280;64614;32.062;34.834;2024-03-02T04:52:18;100568.63;;;25.19;33.14
75936;BME280;64614;32.062;34.834;2024-03-02T04:54:44;100568.75;;;25.23;33.31
75936;BME280;64614;32.062;34.834;2024-03-02T04:57:28;100563.25;;;25.23;33.35
75936;BME280;64614;32.062;34.834;2024-03-02T04:59:54;100561.66;;;25.22;33.35
75936;BME280;64614;32.062;34.834;2024-03-02T05:02:19;100572.78;;;25.26;33.30
75936;BME280;64614;32.062;34.834;2024-03-02T05:04:45;100578.13;;;25.22;33.02
75936;BME280;64614;32.062;34.834;2024-03-02T05:07:11;100577.16;;;25.18;33.07
75936;BME280;64614;32.062;34.834;2024-03-02T05:09:36;100578.66;;;25.15;32.91
75936;BME280;64614;32.062;34.834;2024-03-02T05:12:02;100572.72;;;25.05;32.76
75936;BME280;64614;32.062;34.834;2024-03-02T05:14:46;100563.91;;;24.90;32.56
75936;BME280;64614;32.062;34.834;2024-03-02T05:17:12;100580.84;;;24.92;32.59
75936;BME280;64614;32.062;34.834;2024-03-02T05:19:37;100568.63;;;24.81;32.57
75936;BME280;64614;32.062;34.834;2024-03-02T05:22:04;100582.38;;;24.81;32.30
75936;BME280;64614;32.062;34.834;2024-03-02T05:24:29;100594.44;;;24.88;32.46
75936;BME280;64614;32.062;34.834;2024-03-02T05:26:55;100607.88;;;24.90;32.47
75936;BME280;64614;32.062;34.834;2024-03-02T05:29:21;100609.50;;;24.82;32.21
75936;BME280;64614;32.062;34.834;2024-03-02T05:31:47;100619.03;;;24.85;31.91
75936;BME280;64614;32.062;34.834;2024-03-02T05:34:12;100621.13;;;24.79;31.04
75936;BME280;64614;32.062;34.834;2024-03-02T05:36:38;100622.91;;;24.66;28.16
75936;BME280;64614;32.062;34.834;2024-03-02T05:39:07;100623.44;;;24.51;28.21
75936;BME280;64614;32.062;34.834;2024-03-02T05:41:35;100634.25;;;24.47;28.77
75936;BME280;64614;32.062;34.834;2024-03-02T05:44:01;100622.66;;;24.33;29.02
75936;BME280;64614;32.062;34.834;2024-03-02T05:46:29;100634.13;;;24.44;29.70
75936;BME280;64614;32.062;34.834;2024-03-02T05:48:54;100622.97;;;24.31;29.85
75936;BME280;64614;32.062;34.834;2024-03-02T05:51:20;100603.44;;;24.24;30.19
75936;BME280;64614;32.062;34.834;2024-03-02T05:53:46;100607.19;;;24.28;30.32
75936;BME280;64614;32.062;34.834;2024-03-02T05:56:11;100604.09;;;24.30;30.38
75936;BME280;64614;32.062;34.834;2024-03-02T05:58:37;100626.38;;;24.46;30.60
75936;BME280;64614;32.062;34.834;2024-03-02T06:01:15;100641.34;;;24.57;30.41
75936;BME280;64614;32.062;34.834;2024-03-02T06:03:43;100635.41;;;24.55;30.88
75936;BME280;64614;32.062;34.834;2024-03-02T06:06:09;100629.09;;;24.46;30.87
75936;BME280;64614;32.062;34.834;2024-03-02T06:08:35;100634.59;;;24.46;30.73
75936;BME280;64614;32.062;34.834;2024-03-02T06:11:01;100626.81;;;24.48;30.73
75936;BME280;64614;32.062;34.834;2024-03-02T06:13:26;100627.81;;;24.52;30.82
75936;BME280;64614;32.062;34.834;2024-03-02T06:15:52;100646.53;;;24.67;30.89
75936;BME280;64614;32.062;34.834;2024-03-02T06:18:18;100643.94;;;24.62;30.92
75936;BME280;64614;32.062;34.834;2024-03-02T06:20:44;100622.31;;;24.52;31.20
75936;BME280;64614;32.062;34.834;2024-03-02T06:23:09;100633.94;;;24.58;31.32
75936;BME280;64614;32.062;34.834;2024-03-02T06:25:35;100652.50;;;24.69;30.97
75936;BME280;64614;32.062;34.834;2024-03-02T06:28:01;100645.22;;;24.74;31.20
75936;BME280;64614;32.062;34.834;2024-03-02T06:30:26;100651.69;;;24.78;31.27
75936;BME280;64614;32.062;34.834;2024-03-02T06:32:52;100626.78;;;24.65;30.96
75936;BME280;64614;32.062;34.834;2024-03-02T06:35:17;100667.97;;;24.92;31.24
75936;BME280;64614;32.062;34.834;2024-03-02T06:37:43;100646.81;;;24.75;31.24
75936;BME280;64614;32.062;34.834;2024-03-02T06:40:09;100668.91;;;24.96;31.52
75936;BME280;64614;32.062;34.834;2024-03-02T06:42:50;100642.78;;;24.81;31.59
75936;BME280;64614;32.062;34.834;2024-03-02T06:45:22;100651.50;;;24.83;31.80
75936;BME280;64614;32.062;34.834;2024-03-02T06:47:48;100653.59;;;24.86;31.48
75936;BME280;64614;32.062;34.834;2024-03-02T06:50:14;100666.78;;;25.01;31.95
75936;BME280;64614;32.062;34.834;2024-03-02T06:52:39;100673.25;;;25.06;31.55
75936;BME280;64614;32.062;34.834;2024-03-02T07:18:21;100690.38;;;25.11;31.45
75936;BME280;64614;32.062;34.834;2024-03-02T07:20:47;100706.47;;;25.22;31.91
75936;BME280;64614;32.062;34.834;2024-03-02T07:23:15;100713.94;;;25.21;31.78
75936;BME280;64614;32.062;34.834;2024-03-02T07:25:40;100703.59;;;25.18;31.84
75936;BME280;64614;32.062;34.834;2024-03-02T07:28:06;100704.91;;;25.21;31.54
75936;BME280;64614;32.062;34.834;2024-03-02T07:30:33;100693.28;;;25.15;32.09
75936;BME280;64614;32.062;34.834;2024-03-02T07:32:59;100705.88;;;25.16;31.90
75936;BME280;64614;32.062;34.834;2024-03-02T07:35:25;100713.28;;;25.24;31.84
75936;BME280;64614;32.062;34.834;2024-03-02T07:37:57;100688.56;;;25.15;31.56
75936;BME280;64614;32.062;34.834;2024-03-02T07:40:23;100721.81;;;25.31;31.93
75936;BME280;64614;32.062;34.834;2024-03-02T07:42:49;100710.19;;;25.26;31.60
75936;BME280;64614;32.062;34.834;2024-03-02T07:45:14;100705.50;;;25.26;31.48
75936;BME280;64614;32.062;34.834;2024-03-02T07:47:40;100719.88;;;25.32;31.86
75936;BME280;64614;32.062;34.834;2024-03-02T07:50:06;100736.38;;;25.32;31.73
75936;BME280;64614;32.062;34.834;2024-03-02T07:52:35;100702.66;;;25.14;31.72
75936;BME280;64614;32.062;34.834;2024-03-02T07:55:01;100693.63;;;25.05;31.52
75936;BME280;64614;32.062;34.834;2024-03-02T07:57:26;100722.00;;;25.26;31.38
75936;BME280;64614;32.062;34.834;2024-03-02T07:59:52;100730.22;;;25.35;31.64
75936;BME280;64614;32.062;34.834;2024-03-02T08:02:18;100726.66;;;25.34;31.52
75936;BME280;64614;32.062;34.834;2024-03-02T08:04:47;100732.81;;;25.31;31.69
75936;BME280;64614;32.062;34.834;2024-03-02T08:14:53;100743.94;;;25.44;31.85
75936;BME280;64614;32.062;34.834;2024-03-02T08:17:19;100779.22;;;25.42;31.92
75936;BME280;64614;32.062;34.834;2024-03-02T08:19:45;100760.31;;;25.40;31.74
75936;BME280;64614;32.062;34.834;2024-03-02T08:22:16;100758.84;;;25.43;31.73
75936;BME280;64614;32.062;34.834;2024-03-02T08:24:45;100766.78;;;25.44;32.00
75936;BME280;64614;32.062;34.834;2024-03-02T08:27:11;100788.44;;;25.46;31.77
75936;BME280;64614;32.062;34.834;2024-03-02T08:29:37;100766.13;;;25.47;32.15
75936;BME280;64614;32.062;34.834;2024-03-02T08:32:04;100766.91;;;25.48;32.14
75936;BME280;64614;32.062;34.834;2024-03-02T08:34:30;100767.84;;;25.52;31.97
75936;BME280;64614;32.062;34.834;2024-03-02T08:36:56;100782.91;;;25.55;31.96
75936;BME280;64614;32.062;34.834;2024-03-02T08:39:21;100777.41;;;25.55;32.08
75936;BME280;64614;32.062;34.834;2024-03-02T08:41:47;100778.69;;;25.57;32.20
75936;BME280;64614;32.062;34.834;2024-03-02T08:44:13;100763.47;;;25.60;32.26
75936;BME280;64614;32.062;34.834;2024-03-02T08:46:40;100761.84;;;25.59;31.98
75936;BME280;64614;32.062;34.834;2024-03-02T08:49:06;100771.72;;;25.60;32.16
75936;BME280;64614;32.062;34.834;2024-03-02T08:51:32;100787.72;;;25.67;32.17
75936;BME280;64614;32.062;34.834;2024-03-02T08:53:58;100769.13;;;25.63;32.30
75936;BME280;64614;32.062;34.834;2024-03-02T08:56:24;100778.13;;;25.73;32.25
75936;BME280;64614;32.062;34.834;2024-03-02T08:58:51;100785.59;;;25.72;32.71
75936;BME280;64614;32.062;34.834;2024-03-02T09:01:19;100767.78;;;25.70;32.55
75936;BME280;64614;32.062;34.834;2024-03-02T09:03:45;100776.66;;;25.75;32.73
75936;BME280;64614;32.062;34.834;2024-03-02T09:06:13;100791.03;;;25.81;32.58
75936;BME280;64614;32.062;34.834;2024-03-02T09:08:39;100783.91;;;25.80;32.88
75936;BME280;64614;32.062;34.834;2024-03-02T09:11:07;100753.66;;;25.80;32.81
75936;BME280;64614;32.062;34.834;2024-03-02T09:13:33;100770.47;;;25.87;33.15
75936;BME280;64614;32.062;34.834;2024-03-02T09:15:59;100775.16;;;25.87;33.42
75936;BME280;64614;32.062;34.834;2024-03-02T09:18:24;100766.91;;;25.87;33.25
75936;BME280;64614;32.062;34.834;2024-03-02T09:20:50;100771.63;;;25.86;33.54
75936;BME280;64614;32.062;34.834;2024-03-02T09:23:16;100774.03;;;25.88;33.18
75936;BME280;64614;32.062;34.834;2024-03-02T09:25:41;100770.63;;;25.91;33.67
75936;BME280;64614;32.062;34.834;2024-03-02T09:28:07;100771.22;;;25.96;33.26
75936;BME280;64614;32.062;34.834;2024-03-02T09:30:33;100768.75;;;26.04;33.44
75936;BME280;64614;32.062;34.834;2024-03-02T09:32:58;100773.44;;;26.03;33.67
75936;BME280;64614;32.062;34.834;2024-03-02T09:35:24;100788.97;;;26.08;33.87
75936;BME280;64614;32.062;34.834;2024-03-02T09:37:50;100720.53;;;25.97;37.26
75936;BME280;64614;32.062;34.834;2024-03-02T09:40:16;100741.06;;;26.09;35.93
75936;BME280;64614;32.062;34.834;2024-03-02T09:42:42;100744.31;;;26.02;35.37
75936;BME280;64614;32.062;34.834;2024-03-02T09:45:09;100742.34;;;26.11;34.91
75936;BME280;64614;32.062;34.834;2024-03-02T09:47:35;100715.00;;;26.06;35.06
75936;BME280;64614;32.062;34.834;2024-03-02T09:50:01;100710.34;;;25.98;34.90
75936;BME280;64614;32.062;34.834;2024-03-02T09:52:27;100720.66;;;26.10;34.69
75936;BME280;64614;32.062;34.834;2024-03-02T09:54:53;100674.34;;;26.12;34.92
75936;BME280;64614;32.062;34.834;2024-03-02T09:57:18;100723.41;;;26.10;34.52
75936;BME280;64614;32.062;34.834;2024-03-02T09:59:47;100732.59;;;26.14;34.58
75936;BME280;64614;32.062;34.834;2024-03-02T10:02:13;100732.47;;;26.32;34.48
75936;BME280;64614;32.062;34.834;2024-03-02T10:04:38;100725.09;;;26.23;34.60
75936;BME280;64614;32.062;34.834;2024-03-02T10:07:14;100732.16;;;26.33;34.50
75936;BME280;64614;32.062;34.834;2024-03-02T10:09:42;100720.81;;;26.35;34.61
75936;BME280;64614;32.062;34.834;2024-03-02T10:15:31;100708.16;;;26.34;35.91
75936;BME280;64614;32.062;34.834;2024-03-02T10:18:00;100727.66;;;26.50;35.98
75936;BME280;64614;32.062;34.834;2024-03-02T10:20:26;100707.00;;;26.56;34.68
75936;BME280;64614;32.062;34.834;2024-03-02T10:23:15;100715.50;;;26.51;35.64
75936;BME280;64614;32.062;34.834;2024-03-02T10:25:42;100727.91;;;26.57;35.98
75936;BME280;64614;32.062;34.834;2024-03-02T10:28:07;100728.72;;;26.57;35.59
75936;BME280;64614;32.062;34.834;2024-03-02T10:30:37;100714.72;;;26.63;35.52
75936;BME280;64614;32.062;34.834;2024-03-02T10:33:03;100737.84;;;26.70;35.36
75936;BME280;64614;32.062;34.834;2024-03-02T10:35:30;100723.13;;;26.66;35.83
75936;BME280;64614;32.062;34.834;2024-03-02T10:37:59;100699.56;;;26.56;35.75
75936;BME280;64614;32.062;34.834;2024-03-02T10:40:29;100744.78;;;26.77;35.52
75936;BME280;64614;32.062;34.834;2024-03-02T10:42:55;100750.59;;;26.75;35.30
75936;BME280;64614;32.062;34.834;2024-03-02T10:45:23;100729.66;;;26.62;35.22
75936;BME280;64614;32.062;34.834;2024-03-02T10:47:50;100712.19;;;26.57;35.18
75936;BME280;64614;32.062;34.834;2024-03-02T10:50:16;100695.31;;;26.59;35.57
75936;BME280;64614;32.062;34.834;2024-03-02T10:52:42;100680.16;;;26.53;35.29
75936;BME280;64614;32.062;34.834;2024-03-02T13:48:24;100778.34;;;26.27;36.21
75936;BME280;64614;32.062;34.834;2024-03-02T13:50:51;100768.22;;;26.19;36.28
75936;BME280;64614;32.062;34.834;2024-03-02T13:53:20;100785.78;;;26.27;36.28
75936;BME280;64614;32.062;34.834;2024-03-02T13:55:46;100782.91;;;26.23;36.13
75936;BME280;64614;32.062;34.834;2024-03-02T13:58:12;100789.84;;;26.30;36.21
75936;BME280;64614;32.062;34.834;2024-03-02T14:00:40;100784.44;;;26.12;36.27
75936;BME280;64614;32.062;34.834;2024-03-02T14:03:06;100788.81;;;26.13;36.33
75936;BME280;64614;32.062;34.834;2024-03-02T14:05:32;100803.47;;;26.26;36.62
75936;BME280;64614;32.062;34.834;2024-03-02T14:07:58;100813.47;;;26.31;36.49
75936;BME280;64614;32.062;34.834;2024-03-02T14:10:27;100820.78;;;26.26;37.01
75936;BME280;64614;32.062;34.834;2024-03-02T14:12:53;100822.31;;;26.36;36.71
75936;BME280;64614;32.062;34.834;2024-03-02T14:15:20;100832.28;;;26.28;37.02
75936;BME280;64614;32.062;34.834;2024-03-02T14:17:46;100828.38;;;26.30;37.16
75936;BME280;64614;32.062;34.834;2024-03-02T14:20:12;100842.78;;;26.35;37.18
75936;BME280;64614;32.062;34.834;2024-03-02T14:22:39;100812.91;;;26.16;37.25
75936;BME280;64614;32.062;34.834;2024-03-02T14:25:05;100815.84;;;26.11;37.65
75936;BME280;64614;32.062;34.834;2024-03-02T14:27:31;100842.31;;;26.24;37.32
75936;BME280;64614;32.062;34.834;2024-03-02T14:29:57;100824.25;;;26.15;37.49
75936;BME280;64614;32.062;34.834;2024-03-02T14:32:23;100823.31;;;26.02;37.32
75936;BME280;64614;32.062;34.834;2024-03-02T14:34:48;100851.25;;;26.21;37.75
75936;BME280;64614;32.062;34.834;2024-03-02T14:37:17;100834.41;;;26.23;37.66
75936;BME280;64614;32.062;34.834;2024-03-02T14:39:42;100821.84;;;26.04;37.52
75936;BME280;64614;32.062;34.834;2024-03-02T14:42:08;100830.44;;;26.03;37.57
75936;BME280;64614;32.062;34.834;2024-03-02T14:44:34;100840.78;;;26.15;37.59
75936;BME280;64614;32.062;34.834;2024-03-02T14:47:03;100847.59;;;26.08;37.88
75936;BME280;64614;32.062;34.834;2024-03-02T14:49:32;100821.59;;;25.88;37.94
75936;BME280;64614;32.062;34.834;2024-03-02T14:52:01;100830.16;;;25.95;38.44
75936;BME280;64614;32.062;34.834;2024-03-02T14:54:27;100861.50;;;26.12;38.78
75936;BME280;64614;32.062;34.834;2024-03-02T14:56:52;100842.75;;;25.96;38.50
75936;BME280;64614;32.062;34.834;2024-03-02T14:59:18;100864.91;;;26.09;38.63
75936;BME280;64614;32.062;34.834;2024-03-02T15:01:44;100836.31;;;25.92;38.47
75936;BME280;64614;32.062;34.834;2024-03-02T15:04:11;100842.44;;;25.98;38.38
75936;BME280;64614;32.062;34.834;2024-03-02T15:06:37;100854.06;;;26.04;38.18
75936;BME280;64614;32.062;34.834;2024-03-02T15:09:03;100839.84;;;25.93;38.20
75936;BME280;64614;32.062;34.834;2024-03-02T15:11:28;100840.19;;;25.91;38.39
75936;BME280;64614;32.062;34.834;2024-03-02T15:13:55;100859.44;;;26.00;38.26
75936;BME280;64614;32.062;34.834;2024-03-02T15:16:21;100829.84;;;25.88;38.36
75936;BME280;64614;32.062;34.834;2024-03-02T15:18:46;100836.31;;;25.92;38.14
75936;BME280;64614;32.062;34.834;2024-03-02T15:21:12;100812.41;;;25.84;38.23
75936;BME280;64614;32.062;34.834;2024-03-02T15:23:38;100821.41;;;25.93;38.08
75936;BME280;64614;32.062;34.834;2024-03-02T15:26:03;100823.34;;;25.93;39.10
75936;BME280;64614;32.062;34.834;2024-03-02T15:28:29;100805.47;;;25.78;39.27
75936;BME280;64614;32.062;34.834;2024-03-02T15:30:55;100824.06;;;25.81;39.85
75936;BME280;64614;32.062;34.834;2024-03-02T15:33:20;100810.19;;;25.69;40.28
75936;BME280;64614;32.062;34.834;2024-03-02T15:35:46;100837.81;;;25.81;40.01
75936;BME280;64614;32.062;34.834;2024-03-02T15:38:12;100822.34;;;25.59;40.21
75936;BME280;64614;32.062;34.834;2024-03-02T15:40:40;100836.75;;;25.64;40.77
75936;BME280;64614;32.062;34.834;2024-03-02T15:43:06;100831.44;;;25.59;40.39
75936;BME280;64614;32.062;34.834;2024-03-02T15:45:32;100825.00;;;25.46;40.29
75936;BME280;64614;32.062;34.834;2024-03-02T15:47:59;100848.22;;;25.58;40.45
75936;BME280;64614;32.062;34.834;2024-03-02T15:50:26;100842.94;;;25.44;39.99
75936;BME280;64614;32.062;34.834;2024-03-02T15:52:52;100855.53;;;25.54;39.88
75936;BME280;64614;32.062;34.834;2024-03-02T15:55:18;100845.19;;;25.50;39.40
75936;BME280;64614;32.062;34.834;2024-03-02T15:57:43;100848.56;;;25.56;39.32
75936;BME280;64614;32.062;34.834;2024-03-02T16:00:09;100856.81;;;25.56;39.29
75936;BME280;64614;32.062;34.834;2024-03-02T16:02:36;100823.84;;;25.39;39.33
75936;BME280;64614;32.062;34.834;2024-03-02T16:05:02;100848.91;;;25.46;39.42
75936;BME280;64614;32.062;34.834;2024-03-02T16:07:27;100852.16;;;25.48;39.29